Time;durP1;ratioP1;P1;durP2;ratioP2;P2;SDS_P1;SDS_P2;PMS_P1;PMS_P2;Temp;Humidity;BMP_temperature;BMP_pressure;BME280_temperature;BME280_humidity;BME280_pressure;Samples;Min_cycle;Max_cycle;Signal;HPM_P1;HPM_P2
2022/10/01 06:35:04;;;;;;;;;;;21.30;84.20;;;;;;5591530;23;20015;-77
2022/10/01 06:37:30;;;;;;;;;;;21.30;84.30;;;;;;5037945;28;19976;-78
2022/10/01 06:39:57;;;;;;;;;;;21.30;84.30;;;;;;5038669;28;19932;-78
2022/10/01 06:42:24;;;;;;;;;;;21.30;84.30;;;;;;5038804;28;19932;-78
2022/10/01 06:44:50;;;;;;;;;;;21.30;83.90;;;;;;5037988;28;19976;-78
2022/10/01 06:47:17;;;;;;;;;;;21.30;83.20;;;;;;5037888;28;20011;-78
2022/10/01 06:49:44;;;;;;;;;;;21.20;82.40;;;;;;5063494;23;19961;-79
2022/10/01 06:55:08;;;;;;;;;;;21.00;80.60;;;;;;5020018;28;19926;-81
2022/10/01 06:57:34;;;;;;;;;;;20.90;80.50;;;;;;5035177;28;19983;-81
2022/10/01 07:00:01;;;;;;;;;;;20.90;80.50;;;;;;5041635;28;20012;-81
2022/10/01 07:02:28;;;;;;;;;;;20.90;80.50;;;;;;5041698;28;20292;-80
2022/10/01 07:04:57;;;;;;;;;;;20.90;80.10;;;;;;5041372;28;19983;-79
2022/10/01 07:07:28;;;;;;;;;;;21.00;80.00;;;;;;5040541;28;19976;-81
2022/10/01 07:09:55;;;;;;;;;;;21.00;79.80;;;;;;5041246;28;20024;-81
2022/10/01 07:12:21;;;;;;;;;;;21.00;79.70;;;;;;5040573;28;20388;-81
2022/10/01 07:14:48;;;;;;;;;;;21.10;79.80;;;;;;5041706;28;20360;-81
2022/10/01 07:17:15;;;;;;;;;;;21.10;79.70;;;;;;5040295;28;19984;-82
2022/10/01 07:19:41;;;;;;;;;;;21.10;79.70;;;;;;5041151;28;20002;-80
2022/10/01 07:22:08;;;;;;;;;;;21.20;79.70;;;;;;5041537;28;19976;-80
2022/10/01 07:24:36;;;;;;;;;;;21.20;79.70;;;;;;5041808;28;19968;-80
2022/10/01 07:27:03;;;;;;;;;;;21.20;79.60;;;;;;5041612;28;19960;-81
2022/10/01 07:29:30;;;;;;;;;;;21.20;79.60;;;;;;5042049;28;20021;-80
2022/10/01 07:31:58;;;;;;;;;;;21.30;79.60;;;;;;5041229;28;20296;-79
2022/10/01 07:34:24;;;;;;;;;;;21.30;79.60;;;;;;5040334;28;20011;-79
2022/10/01 07:36:53;;;;;;;;;;;21.20;79.40;;;;;;5040027;28;20388;-80
2022/10/01 07:39:19;;;;;;;;;;;21.30;79.40;;;;;;5040063;28;19960;-80
2022/10/01 07:41:47;;;;;;;;;;;21.30;79.30;;;;;;5039659;28;19926;-79
2022/10/01 07:44:14;;;;;;;;;;;21.30;79.30;;;;;;5042142;28;19980;-79
2022/10/01 07:46:41;;;;;;;;;;;21.30;79.30;;;;;;5039696;28;19948;-77
2022/10/01 07:49:08;;;;;;;;;;;21.30;79.30;;;;;;5041159;28;19979;-77
2022/10/01 07:51:35;;;;;;;;;;;21.30;80.00;;;;;;5046152;28;19984;-80
2022/10/01 07:54:02;;;;;;;;;;;21.30;79.20;;;;;;5052590;28;19976;-80
2022/10/01 07:56:28;;;;;;;;;;;21.30;79.90;;;;;;5051214;28;19925;-80
2022/10/01 07:58:57;;;;;;;;;;;21.30;79.10;;;;;;5053681;28;19929;-80
2022/10/01 08:01:25;;;;;;;;;;;21.40;79.20;;;;;;5049038;28;20040;-79
2022/10/01 08:03:52;;;;;;;;;;;21.40;79.20;;;;;;5045085;28;19983;-78
2022/10/01 08:06:19;;;;;;;;;;;21.40;79.10;;;;;;5047261;28;19972;-79
2022/10/01 08:08:47;;;;;;;;;;;21.40;79.00;;;;;;5046843;28;19932;-78
2022/10/01 08:11:16;;;;;;;;;;;21.40;79.00;;;;;;5044821;28;19932;-79
2022/10/01 08:13:44;;;;;;;;;;;21.40;78.90;;;;;;5042728;28;20059;-79
2022/10/01 08:16:14;;;;;;;;;;;21.40;78.90;;;;;;5043766;28;20000;-79
2022/10/01 08:18:41;;;;;;;;;;;21.40;78.90;;;;;;5043512;28;19948;-81
2022/10/01 08:21:08;;;;;;;;;;;21.40;78.80;;;;;;5043187;28;19964;-81
2022/10/01 08:23:35;;;;;;;;;;;21.40;78.70;;;;;;5041382;28;20424;-81
2022/10/01 08:26:02;;;;;;;;;;;21.40;78.60;;;;;;5040368;28;19957;-81
2022/10/01 08:28:29;;;;;;;;;;;21.40;78.60;;;;;;5039837;28;19967;-81
2022/10/01 08:30:56;;;;;;;;;;;21.40;78.50;;;;;;5039683;28;19929;-81
2022/10/01 08:33:25;;;;;;;;;;;21.40;78.50;;;;;;5039533;28;20012;-83
2022/10/01 08:35:52;;;;;;;;;;;21.40;78.50;;;;;;5041299;28;20357;-81
2022/10/01 08:38:20;;;;;;;;;;;21.40;78.50;;;;;;5042179;28;19972;-80
2022/10/01 08:40:49;;;;;;;;;;;21.40;78.50;;;;;;5041751;28;19961;-85
2022/10/01 08:43:30;;;;;;;;;;;21.40;78.60;;;;;;5039232;28;19972;-85
2022/10/01 08:45:58;;;;;;;;;;;21.40;78.60;;;;;;5040043;28;19976;-84
2022/10/01 08:48:30;;;;;;;;;;;21.40;78.70;;;;;;5039528;28;19965;-84
2022/10/01 08:51:01;;;;;;;;;;;21.40;78.70;;;;;;5038686;28;19925;-84
2022/10/01 08:53:30;;;;;;;;;;;21.50;78.80;;;;;;5038730;28;20280;-80
2022/10/01 08:55:58;;;;;;;;;;;21.50;78.70;;;;;;5041250;28;19929;-79
2022/10/01 08:58:28;;;;;;;;;;;21.40;78.60;;;;;;5038635;28;19963;-80
2022/10/01 09:00:55;;;;;;;;;;;21.50;78.60;;;;;;5040367;28;19983;-80
2022/10/01 09:03:22;;;;;;;;;;;21.50;78.60;;;;;;5045757;28;20307;-80
2022/10/01 09:05:59;;;;;;;;;;;21.50;78.60;;;;;;5048015;28;19952;-80
2022/10/01 09:08:42;;;;;;;;;;;21.50;78.60;;;;;;5047377;28;19925;-80
2022/10/01 09:11:15;;;;;;;;;;;21.50;78.50;;;;;;5045125;28;19925;-79
2022/10/01 09:13:54;;;;;;;;;;;21.50;78.50;;;;;;5044882;28;19932;-83
2022/10/01 09:16:24;;;;;;;;;;;21.50;78.60;;;;;;5042778;28;19993;-82
2022/10/01 09:19:00;;;;;;;;;;;21.50;78.60;;;;;;5039165;28;20404;-79
2022/10/01 09:21:47;;;;;;;;;;;21.50;78.60;;;;;;5043340;28;19960;-80
2022/10/01 09:24:16;;;;;;;;;;;21.50;78.90;;;;;;5041129;28;19925;-80
2022/10/01 09:26:45;;;;;;;;;;;21.50;78.90;;;;;;5044722;28;19957;-79
2022/10/01 09:29:14;;;;;;;;;;;21.50;78.90;;;;;;5041975;28;19925;-80
2022/10/01 09:31:46;;;;;;;;;;;21.50;79.00;;;;;;5044363;28;19925;-80
2022/10/01 09:34:14;;;;;;;;;;;21.50;79.00;;;;;;5043288;28;19988;-81
2022/10/01 09:36:47;;;;;;;;;;;21.50;79.10;;;;;;5041525;28;19995;-81
2022/10/01 09:39:18;;;;;;;;;;;21.50;79.20;;;;;;5043445;28;19964;-80
2022/10/01 09:41:47;;;;;;;;;;;21.50;79.20;;;;;;5043859;28;19928;-80
2022/10/01 09:44:16;;;;;;;;;;;21.50;79.30;;;;;;5043338;28;19925;-80
2022/10/01 09:46:44;;;;;;;;;;;21.50;79.30;;;;;;5042966;28;20351;-82
2022/10/01 09:49:15;;;;;;;;;;;21.50;79.40;;;;;;5040027;28;20024;-81
2022/10/01 09:51:45;;;;;;;;;;;21.50;79.40;;;;;;5038347;28;19952;-79
2022/10/01 09:54:15;;;;;;;;;;;21.50;79.50;;;;;;5041576;28;19983;-79
2022/10/01 09:56:46;;;;;;;;;;;21.50;79.60;;;;;;5040628;28;19925;-79
2022/10/01 09:59:14;;;;;;;;;;;21.50;79.70;;;;;;5039704;28;19948;-79
2022/10/01 10:01:44;;;;;;;;;;;21.50;79.80;;;;;;5039220;28;20353;-79
2022/10/01 10:04:11;;;;;;;;;;;21.50;79.90;;;;;;5038513;28;20353;-78
2022/10/01 10:06:38;;;;;;;;;;;21.50;80.00;;;;;;5039817;28;19932;-82
2022/10/01 10:09:14;;;;;;;;;;;21.50;80.10;;;;;;5040872;28;19969;-80
2022/10/01 10:11:41;;;;;;;;;;;21.50;80.50;;;;;;5045975;28;19932;-81
2022/10/01 10:14:15;;;;;;;;;;;21.50;80.90;;;;;;5046262;28;20400;-81
2022/10/01 10:16:45;;;;;;;;;;;21.60;81.20;;;;;;5045615;28;19957;-81
2022/10/01 10:19:17;;;;;;;;;;;21.60;81.20;;;;;;5045882;28;19987;-81
2022/10/01 10:21:50;;;;;;;;;;;21.70;82.00;;;;;;5043426;28;19976;-81
2022/10/01 10:24:26;;;;;;;;;;;21.70;82.50;;;;;;5041577;28;19984;-79
2022/10/01 10:26:54;;;;;;;;;;;21.80;83.10;;;;;;5040742;28;19926;-80
2022/10/01 10:29:25;;;;;;;;;;;21.80;83.80;;;;;;5041354;28;19925;-79
2022/10/01 10:31:54;;;;;;;;;;;21.80;84.30;;;;;;5041736;28;19960;-79
2022/10/01 10:34:22;;;;;;;;;;;21.90;84.90;;;;;;5037656;28;19979;-79
2022/10/01 10:36:51;;;;;;;;;;;21.90;85.40;;;;;;5041113;28;20019;-79
2022/10/01 10:39:19;;;;;;;;;;;21.90;85.80;;;;;;5039845;28;20325;-80
2022/10/01 10:41:48;;;;;;;;;;;21.90;86.30;;;;;;5038248;28;19960;-79
2022/10/01 10:44:18;;;;;;;;;;;21.90;86.70;;;;;;5042243;28;19953;-79
2022/10/01 10:46:45;;;;;;;;;;;21.90;87.10;;;;;;5044581;28;20024;-78
2022/10/01 10:49:19;;;;;;;;;;;21.90;87.30;;;;;;5041696;28;19972;-79
2022/10/01 10:51:52;;;;;;;;;;;21.90;87.20;;;;;;5038501;28;20337;-80
2022/10/01 10:54:21;;;;;;;;;;;21.90;87.50;;;;;;5044824;28;19925;-80
2022/10/01 10:56:53;;;;;;;;;;;21.90;87.90;;;;;;5043963;28;19952;-81
2022/10/01 10:59:19;;;;;;;;;;;21.90;88.20;;;;;;5047606;28;19925;-81
2022/10/01 11:01:48;;;;;;;;;;;21.90;88.50;;;;;;5047109;28;19932;-81
2022/10/01 11:04:18;;;;;;;;;;;22.00;88.80;;;;;;5047320;28;19924;-81
2022/10/01 11:06:53;;;;;;;;;;;21.90;88.90;;;;;;5043629;28;20364;-79
2022/10/01 11:09:20;;;;;;;;;;;21.90;89.10;;;;;;5041389;28;19952;-79
2022/10/01 11:11:50;;;;;;;;;;;21.90;89.30;;;;;;5039840;28;19937;-79
2022/10/01 11:14:31;;;;;;;;;;;21.90;89.40;;;;;;5039304;28;19925;-79
2022/10/01 11:17:13;;;;;;;;;;;21.90;89.60;;;;;;5042441;28;20340;-79
2022/10/01 11:19:44;;;;;;;;;;;21.90;89.70;;;;;;5039166;28;19979;-79
2022/10/01 11:22:18;;;;;;;;;;;21.90;89.80;;;;;;5044203;28;20408;-79
2022/10/01 11:24:56;;;;;;;;;;;21.90;89.90;;;;;;5045020;28;19988;-79
2022/10/01 11:27:27;;;;;;;;;;;21.90;90.00;;;;;;5044010;28;19991;-78
2022/10/01 11:30:00;;;;;;;;;;;21.90;90.00;;;;;;5045536;28;19960;-79
2022/10/01 11:32:30;;;;;;;;;;;21.90;90.10;;;;;;5043204;28;19925;-79
2022/10/01 11:35:15;;;;;;;;;;;21.90;90.10;;;;;;5040848;28;19925;-79
2022/10/01 11:37:47;;;;;;;;;;;21.90;90.20;;;;;;5041682;28;19977;-79
2022/10/01 11:40:16;;;;;;;;;;;21.90;90.20;;;;;;5046128;28;20372;-79
2022/10/01 11:42:44;;;;;;;;;;;21.90;90.20;;;;;;5046155;28;19993;-80
2022/10/01 11:45:17;;;;;;;;;;;21.90;90.20;;;;;;5041269;28;19967;-78
2022/10/01 11:47:47;;;;;;;;;;;21.90;90.20;;;;;;5039891;28;19929;-79
2022/10/01 11:50:15;;;;;;;;;;;21.80;90.20;;;;;;5038721;28;20007;-80
2022/10/01 11:52:43;;;;;;;;;;;21.90;90.20;;;;;;5040903;28;19975;-81
2022/10/01 12:00:54;;;;;;;;;;;21.80;90.10;;;;;;5040349;28;20303;-79
2022/10/01 12:03:23;;;;;;;;;;;21.80;90.10;;;;;;5042009;28;19960;-80
2022/10/01 12:05:50;;;;;;;;;;;21.80;90.10;;;;;;5042748;28;20024;-79
2022/10/01 12:08:20;;;;;;;;;;;21.80;90.00;;;;;;5043337;28;19968;-79
2022/10/01 12:10:49;;;;;;;;;;;21.80;90.00;;;;;;5042815;28;19967;-79
2022/10/01 12:13:19;;;;;;;;;;;21.80;89.90;;;;;;5043111;28;19952;-79
2022/10/01 12:15:49;;;;;;;;;;;21.80;89.80;;;;;;5042867;28;20015;-79
2022/10/01 12:18:20;;;;;;;;;;;21.70;89.60;;;;;;5041963;28;19926;-79
2022/10/01 12:20:48;;;;;;;;;;;21.70;89.50;;;;;;5041899;28;19952;-79
2022/10/01 12:23:17;;;;;;;;;;;21.70;89.40;;;;;;5040399;28;19985;-79
2022/10/01 12:25:49;;;;;;;;;;;21.70;89.30;;;;;;5041754;28;19932;-79
2022/10/01 12:28:18;;;;;;;;;;;21.70;89.30;;;;;;5039125;28;19932;-79
2022/10/01 12:30:49;;;;;;;;;;;21.70;89.20;;;;;;5038594;28;20043;-79
2022/10/01 12:33:36;;;;;;;;;;;21.70;89.10;;;;;;5042008;28;19932;-80
2022/10/01 12:36:06;;;;;;;;;;;21.60;89.00;;;;;;5042004;28;19964;-79
2022/10/01 12:38:40;;;;;;;;;;;21.60;88.90;;;;;;5044615;28;19960;-80
2022/10/01 12:41:15;;;;;;;;;;;21.60;88.90;;;;;;5042443;28;20024;-79
2022/10/01 12:43:50;;;;;;;;;;;21.60;88.80;;;;;;5043686;28;19952;-79
2022/10/01 12:46:21;;;;;;;;;;;21.60;88.80;;;;;;5046044;28;20411;-79
2022/10/01 12:48:53;;;;;;;;;;;21.60;88.70;;;;;;5043482;28;20042;-80
2022/10/01 12:51:30;;;;;;;;;;;21.60;88.70;;;;;;5045632;28;19973;-79
2022/10/01 12:54:00;;;;;;;;;;;21.50;88.50;;;;;;5042432;28;19976;-79
2022/10/01 12:56:30;;;;;;;;;;;21.50;88.50;;;;;;5042850;28;19960;-80
2022/10/01 12:59:09;;;;;;;;;;;21.50;88.50;;;;;;5044995;28;19925;-80
2022/10/01 13:01:43;;;;;;;;;;;21.50;88.50;;;;;;5043380;28;19948;-79
2022/10/01 13:04:24;;;;;;;;;;;21.50;88.50;;;;;;5042700;28;19956;-80
2022/10/01 13:07:01;;;;;;;;;;;21.50;88.50;;;;;;5036889;28;19925;-78
2022/10/01 13:09:35;;;;;;;;;;;21.50;88.40;;;;;;5036855;28;19964;-78
2022/10/01 13:12:11;;;;;;;;;;;21.50;88.50;;;;;;5038263;28;19957;-80
2022/10/01 13:14:39;;;;;;;;;;;21.50;88.50;;;;;;5038189;28;20023;-79
2022/10/01 13:17:10;;;;;;;;;;;21.40;88.40;;;;;;5036805;28;19961;-78
2022/10/01 13:19:41;;;;;;;;;;;21.50;88.40;;;;;;5038435;28;19925;-81
2022/10/01 13:22:15;;;;;;;;;;;21.50;88.40;;;;;;5037424;28;19967;-81
2022/10/01 13:24:44;;;;;;;;;;;21.50;88.50;;;;;;5037989;28;20381;-82
2022/10/01 13:27:16;;;;;;;;;;;21.40;88.50;;;;;;5037543;28;19933;-80
2022/10/01 13:29:46;;;;;;;;;;;21.50;88.90;;;;;;5037837;28;19925;-79
2022/10/01 13:32:27;;;;;;;;;;;21.50;89.20;;;;;;5039509;28;20352;-79
2022/10/01 13:34:55;;;;;;;;;;;21.50;89.50;;;;;;5039906;28;20331;-79
2022/10/01 13:37:32;;;;;;;;;;;21.60;90.00;;;;;;5041931;28;19996;-80
2022/10/01 13:39:59;;;;;;;;;;;21.60;90.00;;;;;;5044085;28;19988;-79
2022/10/01 13:42:27;;;;;;;;;;;21.60;90.10;;;;;;5041061;28;19972;-79
2022/10/01 13:44:56;;;;;;;;;;;21.60;90.20;;;;;;5043420;28;19925;-80
2022/10/01 13:47:23;;;;;;;;;;;21.60;90.30;;;;;;5044699;28;20035;-79
2022/10/01 13:49:58;;;;;;;;;;;21.70;90.40;;;;;;5042527;28;19960;-79
2022/10/01 13:52:25;;;;;;;;;;;21.70;90.50;;;;;;5041500;28;19960;-79
2022/10/01 13:54:53;;;;;;;;;;;21.70;90.50;;;;;;5043483;28;19968;-79
2022/10/01 13:57:28;;;;;;;;;;;21.70;90.60;;;;;;5042980;28;19926;-79
2022/10/01 13:59:59;;;;;;;;;;;21.70;90.60;;;;;;5042542;28;19933;-79
2022/10/01 14:02:31;;;;;;;;;;;21.70;91.00;;;;;;5045266;28;20345;-79
2022/10/01 14:05:05;;;;;;;;;;;21.70;90.70;;;;;;5039652;28;19972;-80
2022/10/01 14:07:35;;;;;;;;;;;21.70;90.70;;;;;;5039806;28;19948;-79
2022/10/01 14:10:02;;;;;;;;;;;21.70;90.80;;;;;;5038847;28;19933;-79
2022/10/01 14:18:01;;;;;;;;;;;21.80;90.90;;;;;;5043360;28;20311;-80
2022/10/01 14:20:32;;;;;;;;;;;21.80;90.90;;;;;;5039430;28;19969;-80
2022/10/01 14:23:03;;;;;;;;;;;21.80;90.90;;;;;;5042031;28;19967;-78
2022/10/01 14:25:35;;;;;;;;;;;21.80;90.80;;;;;;5035858;28;19976;-78
2022/10/01 14:28:17;;;;;;;;;;;21.70;90.70;;;;;;5037053;28;20359;-79
2022/10/01 14:30:48;;;;;;;;;;;21.70;90.60;;;;;;5027849;28;20004;-78
2022/10/01 14:33:23;;;;;;;;;;;21.70;90.60;;;;;;5036249;28;19975;-79
2022/10/01 14:35:54;;;;;;;;;;;21.70;90.60;;;;;;5036893;28;20041;-79
2022/10/01 14:38:22;;;;;;;;;;;21.70;90.50;;;;;;5035583;28;19995;-79
2022/10/01 14:40:49;;;;;;;;;;;21.70;90.50;;;;;;5035389;28;19925;-79
2022/10/01 14:43:17;;;;;;;;;;;21.70;90.40;;;;;;5035736;28;19971;-79
2022/10/01 14:45:54;;;;;;;;;;;21.70;90.40;;;;;;5035790;28;19975;-79
2022/10/01 14:48:22;;;;;;;;;;;21.70;90.30;;;;;;5035094;28;19999;-79
2022/10/01 14:50:51;;;;;;;;;;;21.70;90.20;;;;;;5036071;28;19925;-79
2022/10/01 14:53:19;;;;;;;;;;;21.70;90.20;;;;;;5039204;28;20325;-78
2022/10/01 14:55:47;;;;;;;;;;;21.70;90.10;;;;;;5038973;28;20039;-78
2022/10/01 14:58:18;;;;;;;;;;;21.70;90.00;;;;;;5039413;28;20316;-78
2022/10/01 15:00:49;;;;;;;;;;;21.70;90.00;;;;;;5038858;28;19972;-78
2022/10/01 15:03:16;;;;;;;;;;;21.70;89.90;;;;;;5039055;28;20024;-78
2022/10/01 15:05:43;;;;;;;;;;;21.70;89.70;;;;;;5038761;28;20373;-79
2022/10/01 15:08:13;;;;;;;;;;;21.70;89.60;;;;;;5039644;28;19929;-79
2022/10/01 15:10:40;;;;;;;;;;;21.70;89.50;;;;;;5039210;28;19933;-78
2022/10/01 15:13:07;;;;;;;;;;;21.70;89.30;;;;;;5038458;28;19925;-79
2022/10/01 15:15:39;;;;;;;;;;;21.70;89.30;;;;;;5039028;28;19976;-79
2022/10/01 15:18:06;;;;;;;;;;;21.70;89.20;;;;;;5039182;28;19956;-78
2022/10/01 15:20:32;;;;;;;;;;;21.70;89.00;;;;;;5038574;28;20008;-80
2022/10/01 15:22:59;;;;;;;;;;;21.70;88.90;;;;;;5042783;28;19976;-80
2022/10/01 15:25:29;;;;;;;;;;;21.70;88.80;;;;;;5042891;28;19932;-80
2022/10/01 15:27:56;;;;;;;;;;;21.70;88.80;;;;;;5044013;28;19960;-81
2022/10/01 15:30:24;;;;;;;;;;;21.70;88.70;;;;;;5039114;28;19925;-80
2022/10/01 15:32:51;;;;;;;;;;;21.70;88.60;;;;;;5038655;28;19976;-79
2022/10/01 15:35:19;;;;;;;;;;;21.70;88.70;;;;;;5039164;28;20020;-82
2022/10/01 15:37:47;;;;;;;;;;;21.70;88.60;;;;;;5039081;28;19980;-81
2022/10/01 15:40:21;;;;;;;;;;;21.70;88.60;;;;;;5040924;28;20003;-81
2022/10/01 15:43:10;;;;;;;;;;;21.70;88.60;;;;;;5040891;28;20356;-81
2022/10/01 15:45:37;;;;;;;;;;;21.70;88.60;;;;;;5039681;28;19947;-81
2022/10/01 15:48:04;;;;;;;;;;;21.70;88.60;;;;;;5039418;28;19969;-82
2022/10/01 15:50:33;;;;;;;;;;;21.70;88.60;;;;;;5040487;28;20008;-81
2022/10/01 15:53:02;;;;;;;;;;;21.70;88.60;;;;;;5039454;28;20277;-81
2022/10/01 15:55:32;;;;;;;;;;;21.70;88.60;;;;;;5040060;28;20431;-82
2022/10/01 15:58:04;;;;;;;;;;;21.70;88.60;;;;;;5040191;28;19985;-82
2022/10/01 16:00:31;;;;;;;;;;;21.70;88.60;;;;;;5040032;28;19983;-81
2022/10/01 16:02:59;;;;;;;;;;;21.70;89.30;;;;;;5038753;28;20017;-81
2022/10/01 16:05:28;;;;;;;;;;;21.70;88.70;;;;;;5039001;28;19925;-81
2022/10/01 16:07:57;;;;;;;;;;;21.70;88.70;;;;;;5036952;28;19925;-81
2022/10/01 16:10:34;;;;;;;;;;;21.70;88.80;;;;;;5038787;28;19926;-81
2022/10/01 16:13:16;;;;;;;;;;;21.70;88.70;;;;;;5040415;28;19925;-81
2022/10/01 16:16:05;;;;;;;;;;;21.70;88.80;;;;;;5036593;28;19925;-79
2022/10/01 16:18:33;;;;;;;;;;;21.70;88.80;;;;;;5044287;28;20403;-79
2022/10/01 16:21:00;;;;;;;;;;;21.70;88.80;;;;;;5045352;28;19952;-79
2022/10/01 16:23:51;;;;;;;;;;;21.70;88.70;;;;;;5045461;28;19932;-79
2022/10/01 16:26:40;;;;;;;;;;;21.70;88.70;;;;;;5035002;28;19932;-79
2022/10/01 16:29:18;;;;;;;;;;;21.70;88.80;;;;;;5045362;28;19925;-80
2022/10/01 16:31:46;;;;;;;;;;;21.70;88.90;;;;;;5045714;28;19931;-80
2022/10/01 16:34:14;;;;;;;;;;;21.70;89.10;;;;;;5045293;28;19932;-79
2022/10/01 16:36:45;;;;;;;;;;;21.70;89.20;;;;;;5044754;28;21520;-79
2022/10/01 16:39:13;;;;;;;;;;;21.80;89.50;;;;;;5045101;28;19952;-79
2022/10/01 16:41:41;;;;;;;;;;;21.80;89.60;;;;;;5043873;28;19936;-82
2022/10/01 16:44:11;;;;;;;;;;;21.80;89.70;;;;;;5044881;28;20300;-83
2022/10/01 16:46:38;;;;;;;;;;;21.80;90.00;;;;;;5045815;28;19925;-81
2022/10/01 16:49:10;;;;;;;;;;;21.80;90.10;;;;;;5044849;28;19976;-82
2022/10/01 16:51:39;;;;;;;;;;;21.90;90.20;;;;;;5038930;28;20388;-84
2022/10/01 16:54:06;;;;;;;;;;;21.90;90.30;;;;;;5039497;28;20008;-84
2022/10/01 16:56:34;;;;;;;;;;;21.90;90.40;;;;;;5039225;28;19925;-85
2022/10/01 16:59:01;;;;;;;;;;;22.00;90.40;;;;;;5041507;28;19989;-85
2022/10/01 17:01:29;;;;;;;;;;;22.00;90.40;;;;;;5039727;28;19925;-85
2022/10/01 17:03:56;;;;;;;;;;;22.00;90.40;;;;;;5040957;28;19925;-85
2022/10/01 17:06:24;;;;;;;;;;;22.00;90.40;;;;;;5041055;28;19925;-86
2022/10/01 17:08:51;;;;;;;;;;;22.00;90.40;;;;;;5041302;28;19947;-85
2022/10/01 17:11:19;;;;;;;;;;;22.00;90.50;;;;;;5039302;28;19931;-81
2022/10/01 17:13:46;;;;;;;;;;;22.00;90.30;;;;;;5043007;28;20385;-81
2022/10/01 17:16:15;;;;;;;;;;;22.00;90.20;;;;;;5044689;28;19925;-78
2022/10/01 17:18:42;;;;;;;;;;;21.90;90.20;;;;;;5039531;28;19979;-83
2022/10/01 17:21:10;;;;;;;;;;;22.00;90.20;;;;;;5038596;28;19925;-84
2022/10/01 17:23:39;;;;;;;;;;;22.00;90.10;;;;;;5038158;28;19925;-84
2022/10/01 17:26:07;;;;;;;;;;;22.00;90.10;;;;;;5036687;28;19925;-83
2022/10/01 17:28:34;;;;;;;;;;;21.90;90.00;;;;;;5040678;28;19975;-80
2022/10/01 17:31:05;;;;;;;;;;;21.90;90.00;;;;;;5039144;28;19928;-81
2022/10/01 17:33:33;;;;;;;;;;;21.90;89.90;;;;;;5039473;28;20388;-82
2022/10/01 17:36:00;;;;;;;;;;;21.90;89.90;;;;;;5039187;28;19925;-81
2022/10/01 17:38:27;;;;;;;;;;;21.90;89.80;;;;;;5041334;28;19925;-81
2022/10/01 17:40:56;;;;;;;;;;;21.90;89.80;;;;;;5041749;28;19931;-81
2022/10/01 17:43:23;;;;;;;;;;;21.90;89.70;;;;;;5042641;28;19929;-83
2022/10/01 17:45:55;;;;;;;;;;;21.90;89.70;;;;;;5043667;28;19925;-81
2022/10/01 17:48:22;;;;;;;;;;;21.90;89.90;;;;;;5041648;28;19952;-81
2022/10/01 17:50:57;;;;;;;;;;;21.90;89.90;;;;;;5042919;28;19932;-80
2022/10/01 17:53:24;;;;;;;;;;;21.80;90.00;;;;;;5039753;28;19925;-81
2022/10/01 17:55:51;;;;;;;;;;;21.90;90.10;;;;;;5039799;28;20400;-81
2022/10/01 17:58:20;;;;;;;;;;;21.90;90.10;;;;;;5040360;28;20292;-84
2022/10/01 18:00:47;;;;;;;;;;;21.90;90.20;;;;;;5037306;28;19925;-85
2022/10/01 18:03:16;;;;;;;;;;;22.00;90.30;;;;;;5038609;28;20019;-84
2022/10/01 18:05:44;;;;;;;;;;;22.00;90.40;;;;;;5038191;28;20249;-84
2022/10/01 18:08:11;;;;;;;;;;;22.00;90.50;;;;;;5039387;28;19929;-82
2022/10/01 18:10:41;;;;;;;;;;;22.00;90.50;;;;;;5044457;28;19925;-82
2022/10/01 18:13:08;;;;;;;;;;;22.00;90.60;;;;;;5042043;28;20373;-84
2022/10/01 18:15:36;;;;;;;;;;;22.00;90.60;;;;;;5038187;28;19932;-85
2022/10/01 18:18:04;;;;;;;;;;;22.00;90.70;;;;;;5037578;28;20308;-85
2022/10/01 18:20:31;;;;;;;;;;;22.00;90.70;;;;;;5037861;28;19929;-85
2022/10/01 18:22:58;;;;;;;;;;;22.00;90.70;;;;;;5037163;28;20373;-86
2022/10/01 18:25:26;;;;;;;;;;;22.00;90.70;;;;;;5042439;28;19925;-79
2022/10/01 18:27:55;;;;;;;;;;;22.00;90.80;;;;;;5042245;28;19977;-83
2022/10/01 18:30:22;;;;;;;;;;;22.00;90.80;;;;;;5047551;28;19971;-80
2022/10/01 18:32:55;;;;;;;;;;;22.00;90.80;;;;;;5042586;28;19933;-83
2022/10/01 18:35:27;;;;;;;;;;;22.00;90.80;;;;;;5043602;28;20389;-79
2022/10/01 18:37:55;;;;;;;;;;;22.00;90.80;;;;;;5042234;28;19925;-81
2022/10/01 18:40:25;;;;;;;;;;;22.00;90.90;;;;;;5041762;28;19925;-81
2022/10/01 18:42:54;;;;;;;;;;;22.00;90.90;;;;;;5042916;28;19943;-80
2022/10/01 18:45:29;;;;;;;;;;;22.00;90.90;;;;;;5043507;28;19929;-79
2022/10/01 18:48:05;;;;;;;;;;;22.00;90.90;;;;;;5041707;28;19948;-83
2022/10/01 18:50:38;;;;;;;;;;;22.00;91.00;;;;;;5045235;28;19932;-82
2022/10/01 18:53:17;;;;;;;;;;;22.00;91.00;;;;;;5043373;28;19926;-83
2022/10/01 18:55:54;;;;;;;;;;;22.00;91.10;;;;;;5045023;28;19925;-82
2022/10/01 18:58:32;;;;;;;;;;;22.00;91.20;;;;;;5041074;28;20455;-82
2022/10/01 19:01:03;;;;;;;;;;;22.00;91.30;;;;;;5043405;28;19932;-82
2022/10/01 19:03:48;;;;;;;;;;;22.00;91.30;;;;;;5042992;28;19925;-83
2022/10/01 19:06:29;;;;;;;;;;;22.00;91.30;;;;;;5094907;23;20269;-76
2022/10/01 19:09:09;;;;;;;;;;;22.00;91.30;;;;;;5037392;28;19932;-76
2022/10/01 19:11:41;;;;;;;;;;;22.00;91.30;;;;;;5037144;28;20388;-76
2022/10/01 19:14:18;;;;;;;;;;;22.00;91.30;;;;;;5037345;28;20020;-77
2022/10/01 19:16:50;;;;;;;;;;;22.00;91.40;;;;;;5038290;28;20333;-77
2022/10/01 19:19:21;;;;;;;;;;;22.00;91.40;;;;;;5038109;28;19929;-78
2022/10/01 19:21:53;;;;;;;;;;;22.00;91.50;;;;;;5038920;28;19975;-78
2022/10/01 19:24:29;;;;;;;;;;;22.00;91.50;;;;;;5037293;28;20028;-78
2022/10/01 19:27:02;;;;;;;;;;;22.00;91.50;;;;;;5036842;28;20399;-78
2022/10/01 19:29:39;;;;;;;;;;;22.00;91.50;;;;;;5037927;28;19992;-78
2022/10/01 19:32:09;;;;;;;;;;;22.00;91.50;;;;;;5037779;28;20031;-78
2022/10/01 19:34:38;;;;;;;;;;;22.00;91.40;;;;;;5037898;28;20028;-77
2022/10/01 19:37:10;;;;;;;;;;;22.00;91.40;;;;;;5036005;28;19925;-77
2022/10/01 19:39:38;;;;;;;;;;;22.00;91.30;;;;;;5037405;28;20027;-77
2022/10/01 19:42:06;;;;;;;;;;;22.00;91.30;;;;;;5039871;28;19931;-79
2022/10/01 19:44:39;;;;;;;;;;;22.00;91.70;;;;;;5040293;28;19933;-78
2022/10/01 19:47:14;;;;;;;;;;;22.00;91.30;;;;;;5039312;28;19984;-78
2022/10/01 19:49:42;;;;;;;;;;;21.90;91.30;;;;;;5036751;28;20024;-77
2022/10/01 19:52:12;;;;;;;;;;;21.90;91.30;;;;;;5038899;28;19925;-80
